sensor_id;sensor_type;location;lat;lon;timestamp;P1;durP1;ratioP1;P2;durP2;ratioP2
36651;SDS011;53334;51.976;20.144;2023-09-08T00:02:22;15.63;;;10.32;;
36651;SDS011;53334;51.976;20.144;2023-09-08T00:04:57;15.27;;;10.32;;
36651;SDS011;53334;51.976;20.144;2023-09-08T00:07:30;11.48;;;8.82;;
36651;SDS011;53334;51.976;20.144;2023-09-08T00:10:04;15.73;;;10.25;;
36651;SDS011;53334;51.976;20.144;2023-09-08T00:12:39;12.45;;;9.85;;
36651;SDS011;53334;51.976;20.144;2023-09-08T00:15:14;12.90;;;9.45;;
36651;SDS011;53334;51.976;20.144;2023-09-08T00:17:47;13.23;;;9.73;;
36651;SDS011;53334;51.976;20.144;2023-09-08T00:20:20;12.48;;;9.23;;
36651;SDS011;53334;51.976;20.144;2023-09-08T00:22:54;11.70;;;8.77;;
36651;SDS011;53334;51.976;20.144;2023-09-08T00:25:27;13.52;;;9.15;;
36651;SDS011;53334;51.976;20.144;2023-09-08T00:28:02;14.82;;;9.90;;
36651;SDS011;53334;51.976;20.144;2023-09-08T00:30:35;15.40;;;8.98;;
36651;SDS011;53334;51.976;20.144;2023-09-08T00:33:09;14.65;;;10.15;;
36651;SDS011;53334;51.976;20.144;2023-09-08T00:35:44;13.30;;;9.85;;
36651;SDS011;53334;51.976;20.144;2023-09-08T00:38:20;12.45;;;8.77;;
36651;SDS011;53334;51.976;20.144;2023-09-08T00:40:54;11.63;;;8.85;;
36651;SDS011;53334;51.976;20.144;2023-09-08T00:43:29;10.38;;;8.82;;
36651;SDS011;53334;51.976;20.144;2023-09-08T00:46:02;10.27;;;8.43;;
36651;SDS011;53334;51.976;20.144;2023-09-08T00:48:36;16.35;;;10.40;;
36651;SDS011;53334;51.976;20.144;2023-09-08T00:51:10;11.48;;;8.80;;
36651;SDS011;53334;51.976;20.144;2023-09-08T00:53:43;10.68;;;8.90;;
36651;SDS011;53334;51.976;20.144;2023-09-08T00:56:16;11.93;;;9.10;;
36651;SDS011;53334;51.976;20.144;2023-09-08T00:58:52;10.35;;;7.97;;
36651;SDS011;53334;51.976;20.144;2023-09-08T01:01:25;12.60;;;8.60;;
36651;SDS011;53334;51.976;20.144;2023-09-08T01:03:58;9.68;;;8.30;;
36651;SDS011;53334;51.976;20.144;2023-09-08T01:06:32;10.38;;;9.27;;
36651;SDS011;53334;51.976;20.144;2023-09-08T01:09:06;12.75;;;8.65;;
36651;SDS011;53334;51.976;20.144;2023-09-08T01:11:39;13.52;;;9.50;;
36651;SDS011;53334;51.976;20.144;2023-09-08T01:14:14;11.20;;;8.43;;
36651;SDS011;53334;51.976;20.144;2023-09-08T01:16:50;13.48;;;9.00;;
36651;SDS011;53334;51.976;20.144;2023-09-08T01:19:23;13.18;;;9.05;;
36651;SDS011;53334;51.976;20.144;2023-09-08T01:21:58;11.68;;;8.77;;
36651;SDS011;53334;51.976;20.144;2023-09-08T01:25:19;12.10;;;8.57;;
36651;SDS011;53334;51.976;20.144;2023-09-08T01:27:54;13.52;;;8.23;;
36651;SDS011;53334;51.976;20.144;2023-09-08T01:30:30;10.23;;;8.57;;
36651;SDS011;53334;51.976;20.144;2023-09-08T01:33:05;10.90;;;8.40;;
36651;SDS011;53334;51.976;20.144;2023-09-08T01:35:39;9.25;;;7.75;;
36651;SDS011;53334;51.976;20.144;2023-09-08T01:38:12;9.30;;;7.97;;
36651;SDS011;53334;51.976;20.144;2023-09-08T01:40:47;9.52;;;7.75;;
36651;SDS011;53334;51.976;20.144;2023-09-08T01:43:20;10.13;;;7.75;;
36651;SDS011;53334;51.976;20.144;2023-09-08T01:45:53;10.18;;;7.90;;
36651;SDS011;53334;51.976;20.144;2023-09-08T01:48:27;9.10;;;7.60;;
36651;SDS011;53334;51.976;20.144;2023-09-08T01:51:01;9.10;;;8.18;;
36651;SDS011;53334;51.976;20.144;2023-09-08T01:53:35;10.57;;;8.15;;
36651;SDS011;53334;51.976;20.144;2023-09-08T01:56:09;9.52;;;8.25;;
36651;SDS011;53334;51.976;20.144;2023-09-08T01:58:42;9.73;;;7.65;;
36651;SDS011;53334;51.976;20.144;2023-09-08T02:01:16;11.25;;;7.57;;
36651;SDS011;53334;51.976;20.144;2023-09-08T02:03:49;11.90;;;7.97;;
36651;SDS011;53334;51.976;20.144;2023-09-08T02:06:22;9.98;;;8.55;;
36651;SDS011;53334;51.976;20.144;2023-09-08T02:08:56;9.45;;;7.43;;
36651;SDS011;53334;51.976;20.144;2023-09-08T02:11:31;9.90;;;8.00;;
36651;SDS011;53334;51.976;20.144;2023-09-08T02:14:04;8.40;;;7.47;;
36651;SDS011;53334;51.976;20.144;2023-09-08T02:16:38;10.05;;;7.60;;
36651;SDS011;53334;51.976;20.144;2023-09-08T02:19:11;9.10;;;7.05;;
36651;SDS011;53334;51.976;20.144;2023-09-08T02:21:46;11.02;;;8.43;;
36651;SDS011;53334;51.976;20.144;2023-09-08T02:24:19;9.57;;;7.22;;
36651;SDS011;53334;51.976;20.144;2023-09-08T02:26:54;9.60;;;7.63;;
36651;SDS011;53334;51.976;20.144;2023-09-08T02:29:28;8.15;;;7.05;;
36651;SDS011;53334;51.976;20.144;2023-09-08T02:32:02;12.43;;;8.32;;
36651;SDS011;53334;51.976;20.144;2023-09-08T02:37:11;8.57;;;7.68;;
36651;SDS011;53334;51.976;20.144;2023-09-08T02:39:44;10.60;;;8.48;;
36651;SDS011;53334;51.976;20.144;2023-09-08T02:42:19;8.32;;;7.15;;
36651;SDS011;53334;51.976;20.144;2023-09-08T02:44:52;9.02;;;7.60;;
36651;SDS011;53334;51.976;20.144;2023-09-08T02:47:26;10.70;;;7.68;;
36651;SDS011;53334;51.976;20.144;2023-09-08T02:49:59;10.63;;;7.47;;
36651;SDS011;53334;51.976;20.144;2023-09-08T02:52:35;7.97;;;7.18;;
36651;SDS011;53334;51.976;20.144;2023-09-08T02:55:08;10.18;;;7.80;;
36651;SDS011;53334;51.976;20.144;2023-09-08T02:57:43;9.80;;;7.57;;
36651;SDS011;53334;51.976;20.144;2023-09-08T03:00:16;8.05;;;7.18;;
36651;SDS011;53334;51.976;20.144;2023-09-08T03:02:50;8.60;;;7.47;;
36651;SDS011;53334;51.976;20.144;2023-09-08T03:05:23;8.75;;;6.95;;
36651;SDS011;53334;51.976;20.144;2023-09-08T03:07:57;8.93;;;7.65;;
36651;SDS011;53334;51.976;20.144;2023-09-08T03:10:31;9.60;;;7.05;;
36651;SDS011;53334;51.976;20.144;2023-09-08T03:13:07;9.15;;;7.35;;
36651;SDS011;53334;51.976;20.144;2023-09-08T03:15:40;8.60;;;7.28;;
36651;SDS011;53334;51.976;20.144;2023-09-08T03:18:13;8.88;;;7.75;;
36651;SDS011;53334;51.976;20.144;2023-09-08T03:20:48;7.00;;;6.30;;
36651;SDS011;53334;51.976;20.144;2023-09-08T03:23:22;7.80;;;7.00;;
36651;SDS011;53334;51.976;20.144;2023-09-08T03:25:55;8.90;;;7.05;;
36651;SDS011;53334;51.976;20.144;2023-09-08T03:28:43;9.35;;;7.15;;
36651;SDS011;53334;51.976;20.144;2023-09-08T03:31:16;9.10;;;7.30;;
36651;SDS011;53334;51.976;20.144;2023-09-08T03:36:23;7.30;;;6.38;;
36651;SDS011;53334;51.976;20.144;2023-09-08T03:38:57;9.90;;;7.10;;
36651;SDS011;53334;51.976;20.144;2023-09-08T03:41:30;8.38;;;6.43;;
36651;SDS011;53334;51.976;20.144;2023-09-08T03:44:05;8.23;;;6.70;;
36651;SDS011;53334;51.976;20.144;2023-09-08T03:46:38;7.00;;;6.30;;
36651;SDS011;53334;51.976;20.144;2023-09-08T03:49:12;8.65;;;6.95;;
36651;SDS011;53334;51.976;20.144;2023-09-08T03:51:45;7.55;;;6.85;;
36651;SDS011;53334;51.976;20.144;2023-09-08T03:54:18;8.98;;;7.07;;
36651;SDS011;53334;51.976;20.144;2023-09-08T03:56:52;8.55;;;6.18;;
36651;SDS011;53334;51.976;20.144;2023-09-08T03:59:26;6.97;;;6.28;;
36651;SDS011;53334;51.976;20.144;2023-09-08T04:01:59;8.35;;;6.85;;
36651;SDS011;53334;51.976;20.144;2023-09-08T04:04:33;7.95;;;6.80;;
36651;SDS011;53334;51.976;20.144;2023-09-08T04:07:06;8.25;;;6.75;;
36651;SDS011;53334;51.976;20.144;2023-09-08T04:09:40;11.55;;;6.20;;
36651;SDS011;53334;51.976;20.144;2023-09-08T04:14:48;9.10;;;6.07;;
36651;SDS011;53334;51.976;20.144;2023-09-08T04:17:22;7.07;;;6.40;;
36651;SDS011;53334;51.976;20.144;2023-09-08T04:19:55;7.65;;;6.00;;
36651;SDS011;53334;51.976;20.144;2023-09-08T04:22:28;7.63;;;6.60;;
36651;SDS011;53334;51.976;20.144;2023-09-08T04:25:02;8.90;;;6.97;;
36651;SDS011;53334;51.976;20.144;2023-09-08T04:27:37;8.68;;;7.43;;
36651;SDS011;53334;51.976;20.144;2023-09-08T04:30:13;7.55;;;6.78;;
36651;SDS011;53334;51.976;20.144;2023-09-08T04:32:47;6.30;;;5.70;;
36651;SDS011;53334;51.976;20.144;2023-09-08T04:35:20;6.30;;;5.70;;
36651;SDS011;53334;51.976;20.144;2023-09-08T04:37:54;7.03;;;6.32;;
36651;SDS011;53334;51.976;20.144;2023-09-08T04:40:27;7.45;;;6.60;;
36651;SDS011;53334;51.976;20.144;2023-09-08T04:43:01;7.63;;;6.88;;
36651;SDS011;53334;51.976;20.144;2023-09-08T04:45:36;8.15;;;6.13;;
36651;SDS011;53334;51.976;20.144;2023-09-08T04:48:10;8.30;;;5.97;;
36651;SDS011;53334;51.976;20.144;2023-09-08T04:50:44;8.38;;;6.50;;
36651;SDS011;53334;51.976;20.144;2023-09-08T04:53:18;7.82;;;6.43;;
36651;SDS011;53334;51.976;20.144;2023-09-08T04:55:51;6.38;;;5.78;;
36651;SDS011;53334;51.976;20.144;2023-09-08T04:58:25;8.13;;;6.55;;
36651;SDS011;53334;51.976;20.144;2023-09-08T05:01:00;7.88;;;6.13;;
36651;SDS011;53334;51.976;20.144;2023-09-08T05:03:34;6.53;;;5.93;;
36651;SDS011;53334;51.976;20.144;2023-09-08T05:06:09;8.55;;;6.90;;
36651;SDS011;53334;51.976;20.144;2023-09-08T05:08:42;6.85;;;6.18;;
36651;SDS011;53334;51.976;20.144;2023-09-08T05:11:16;9.68;;;6.55;;
36651;SDS011;53334;51.976;20.144;2023-09-08T05:13:50;7.43;;;6.68;;
36651;SDS011;53334;51.976;20.144;2023-09-08T05:16:25;6.40;;;5.72;;
36651;SDS011;53334;51.976;20.144;2023-09-08T05:19:10;6.85;;;6.15;;
36651;SDS011;53334;51.976;20.144;2023-09-08T05:21:43;8.95;;;6.43;;
36651;SDS011;53334;51.976;20.144;2023-09-08T05:24:16;6.93;;;6.13;;
36651;SDS011;53334;51.976;20.144;2023-09-08T05:29:24;7.10;;;6.15;;
36651;SDS011;53334;51.976;20.144;2023-09-08T05:32:00;7.70;;;6.55;;
36651;SDS011;53334;51.976;20.144;2023-09-08T05:34:33;7.47;;;5.78;;
36651;SDS011;53334;51.976;20.144;2023-09-08T05:37:06;7.22;;;6.10;;
36651;SDS011;53334;51.976;20.144;2023-09-08T05:39:40;6.60;;;6.00;;
36651;SDS011;53334;51.976;20.144;2023-09-08T05:42:13;6.88;;;6.20;;
36651;SDS011;53334;51.976;20.144;2023-09-08T05:44:47;7.85;;;6.38;;
36651;SDS011;53334;51.976;20.144;2023-09-08T05:47:22;8.27;;;5.70;;
36651;SDS011;53334;51.976;20.144;2023-09-08T05:49:56;6.70;;;5.78;;
36651;SDS011;53334;51.976;20.144;2023-09-08T05:52:29;8.05;;;6.25;;
36651;SDS011;53334;51.976;20.144;2023-09-08T05:55:05;7.68;;;5.78;;
36651;SDS011;53334;51.976;20.144;2023-09-08T05:57:39;10.13;;;5.20;;
36651;SDS011;53334;51.976;20.144;2023-09-08T06:00:12;9.57;;;6.55;;
36651;SDS011;53334;51.976;20.144;2023-09-08T06:02:52;11.52;;;6.93;;
36651;SDS011;53334;51.976;20.144;2023-09-08T06:05:26;9.63;;;6.95;;
36651;SDS011;53334;51.976;20.144;2023-09-08T06:07:59;11.93;;;7.90;;
36651;SDS011;53334;51.976;20.144;2023-09-08T06:10:41;13.02;;;7.97;;
36651;SDS011;53334;51.976;20.144;2023-09-08T06:13:14;13.50;;;9.00;;
36651;SDS011;53334;51.976;20.144;2023-09-08T06:15:48;15.20;;;9.23;;
36651;SDS011;53334;51.976;20.144;2023-09-08T06:18:22;14.82;;;8.88;;
36651;SDS011;53334;51.976;20.144;2023-09-08T06:20:56;20.35;;;10.20;;
36651;SDS011;53334;51.976;20.144;2023-09-08T06:26:03;20.30;;;9.77;;
36651;SDS011;53334;51.976;20.144;2023-09-08T06:28:38;19.83;;;9.25;;
36651;SDS011;53334;51.976;20.144;2023-09-08T06:31:13;14.15;;;10.02;;
36651;SDS011;53334;51.976;20.144;2023-09-08T06:33:49;15.48;;;9.40;;
36651;SDS011;53334;51.976;20.144;2023-09-08T06:36:24;14.80;;;10.23;;
36651;SDS011;53334;51.976;20.144;2023-09-08T06:38:58;13.70;;;9.55;;
36651;SDS011;53334;51.976;20.144;2023-09-08T06:41:32;22.65;;;9.65;;
36651;SDS011;53334;51.976;20.144;2023-09-08T06:44:08;15.77;;;9.93;;
36651;SDS011;53334;51.976;20.144;2023-09-08T06:46:41;15.82;;;10.07;;
36651;SDS011;53334;51.976;20.144;2023-09-08T06:49:16;17.55;;;9.38;;
36651;SDS011;53334;51.976;20.144;2023-09-08T06:51:50;21.63;;;9.57;;
36651;SDS011;53334;51.976;20.144;2023-09-08T06:54:23;18.95;;;9.27;;
36651;SDS011;53334;51.976;20.144;2023-09-08T06:56:56;24.67;;;10.48;;
36651;SDS011;53334;51.976;20.144;2023-09-08T06:59:30;14.40;;;9.93;;
36651;SDS011;53334;51.976;20.144;2023-09-08T07:02:03;17.27;;;8.77;;
36651;SDS011;53334;51.976;20.144;2023-09-08T07:04:38;18.05;;;8.88;;
36651;SDS011;53334;51.976;20.144;2023-09-08T07:07:12;19.27;;;10.50;;
36651;SDS011;53334;51.976;20.144;2023-09-08T07:09:45;16.98;;;9.82;;
36651;SDS011;53334;51.976;20.144;2023-09-08T07:12:19;18.40;;;10.32;;
36651;SDS011;53334;51.976;20.144;2023-09-08T07:14:52;13.55;;;8.98;;
36651;SDS011;53334;51.976;20.144;2023-09-08T07:17:26;14.43;;;9.00;;
36651;SDS011;53334;51.976;20.144;2023-09-08T07:20:01;16.33;;;10.02;;
36651;SDS011;53334;51.976;20.144;2023-09-08T07:22:35;19.38;;;9.63;;
36651;SDS011;53334;51.976;20.144;2023-09-08T07:25:08;20.52;;;11.48;;
36651;SDS011;53334;51.976;20.144;2023-09-08T07:30:15;17.60;;;10.45;;
36651;SDS011;53334;51.976;20.144;2023-09-08T07:32:49;17.15;;;11.05;;
36651;SDS011;53334;51.976;20.144;2023-09-08T07:35:23;13.32;;;9.80;;
36651;SDS011;53334;51.976;20.144;2023-09-08T07:37:57;16.20;;;9.65;;
36651;SDS011;53334;51.976;20.144;2023-09-08T07:40:31;20.80;;;9.75;;
36651;SDS011;53334;51.976;20.144;2023-09-08T07:43:05;14.40;;;10.30;;
36651;SDS011;53334;51.976;20.144;2023-09-08T07:45:39;18.20;;;10.75;;
36651;SDS011;53334;51.976;20.144;2023-09-08T07:48:13;15.73;;;11.05;;
36651;SDS011;53334;51.976;20.144;2023-09-08T07:50:47;17.05;;;11.30;;
36651;SDS011;53334;51.976;20.144;2023-09-08T07:53:21;18.50;;;11.05;;
36651;SDS011;53334;51.976;20.144;2023-09-08T07:55:54;18.20;;;11.50;;
36651;SDS011;53334;51.976;20.144;2023-09-08T07:58:27;16.38;;;11.48;;
36651;SDS011;53334;51.976;20.144;2023-09-08T08:01:00;14.32;;;11.35;;
36651;SDS011;53334;51.976;20.144;2023-09-08T08:03:34;22.13;;;10.75;;
36651;SDS011;53334;51.976;20.144;2023-09-08T08:08:42;18.10;;;11.48;;
36651;SDS011;53334;51.976;20.144;2023-09-08T08:11:16;18.42;;;11.07;;
36651;SDS011;53334;51.976;20.144;2023-09-08T08:13:50;16.30;;;10.90;;
36651;SDS011;53334;51.976;20.144;2023-09-08T08:16:23;18.08;;;10.60;;
36651;SDS011;53334;51.976;20.144;2023-09-08T08:18:57;15.98;;;11.82;;
36651;SDS011;53334;51.976;20.144;2023-09-08T08:24:05;15.27;;;10.73;;
36651;SDS011;53334;51.976;20.144;2023-09-08T08:26:38;14.52;;;10.93;;
36651;SDS011;53334;51.976;20.144;2023-09-08T08:29:12;17.98;;;11.35;;
36651;SDS011;53334;51.976;20.144;2023-09-08T08:31:45;11.65;;;10.45;;
36651;SDS011;53334;51.976;20.144;2023-09-08T08:34:18;16.52;;;10.45;;
36651;SDS011;53334;51.976;20.144;2023-09-08T08:36:53;17.30;;;11.32;;
36651;SDS011;53334;51.976;20.144;2023-09-08T08:39:27;17.10;;;10.65;;
36651;SDS011;53334;51.976;20.144;2023-09-08T08:42:06;13.07;;;9.10;;
36651;SDS011;53334;51.976;20.144;2023-09-08T08:44:40;16.58;;;11.15;;
36651;SDS011;53334;51.976;20.144;2023-09-08T08:47:15;22.80;;;9.95;;
36651;SDS011;53334;51.976;20.144;2023-09-08T08:49:49;15.27;;;10.25;;
36651;SDS011;53334;51.976;20.144;2023-09-08T08:52:26;19.00;;;10.95;;
36651;SDS011;53334;51.976;20.144;2023-09-08T08:55:00;17.70;;;10.75;;
36651;SDS011;53334;51.976;20.144;2023-09-08T08:57:33;13.57;;;10.38;;
36651;SDS011;53334;51.976;20.144;2023-09-08T09:00:09;15.13;;;10.13;;
36651;SDS011;53334;51.976;20.144;2023-09-08T09:02:45;17.75;;;10.73;;
36651;SDS011;53334;51.976;20.144;2023-09-08T09:05:38;20.38;;;11.30;;
36651;SDS011;53334;51.976;20.144;2023-09-08T09:08:16;16.90;;;11.20;;
36651;SDS011;53334;51.976;20.144;2023-09-08T09:10:50;18.33;;;10.02;;
36651;SDS011;53334;51.976;20.144;2023-09-08T09:13:24;18.42;;;9.65;;
36651;SDS011;53334;51.976;20.144;2023-09-08T09:15:58;14.82;;;9.88;;
36651;SDS011;53334;51.976;20.144;2023-09-08T09:18:35;16.85;;;9.98;;
36651;SDS011;53334;51.976;20.144;2023-09-08T09:21:40;17.42;;;10.02;;
36651;SDS011;53334;51.976;20.144;2023-09-08T09:24:16;15.45;;;9.18;;
36651;SDS011;53334;51.976;20.144;2023-09-08T09:26:52;12.02;;;8.55;;
36651;SDS011;53334;51.976;20.144;2023-09-08T09:29:26;16.25;;;9.15;;
36651;SDS011;53334;51.976;20.144;2023-09-08T09:32:02;14.35;;;8.45;;
36651;SDS011;53334;51.976;20.144;2023-09-08T09:34:40;15.82;;;9.00;;
36651;SDS011;53334;51.976;20.144;2023-09-08T09:37:21;18.42;;;9.40;;
36651;SDS011;53334;51.976;20.144;2023-09-08T09:39:59;14.70;;;8.07;;
36651;SDS011;53334;51.976;20.144;2023-09-08T09:42:33;15.70;;;8.23;;
36651;SDS011;53334;51.976;20.144;2023-09-08T09:45:06;12.02;;;8.55;;
36651;SDS011;53334;51.976;20.144;2023-09-08T09:47:41;11.25;;;8.57;;
36651;SDS011;53334;51.976;20.144;2023-09-08T09:50:15;10.55;;;8.10;;
36651;SDS011;53334;51.976;20.144;2023-09-08T09:53:01;9.77;;;7.57;;
36651;SDS011;53334;51.976;20.144;2023-09-08T09:55:43;15.07;;;8.00;;
36651;SDS011;53334;51.976;20.144;2023-09-08T09:58:18;9.20;;;7.57;;
36651;SDS011;53334;51.976;20.144;2023-09-08T10:00:52;11.73;;;7.65;;
36651;SDS011;53334;51.976;20.144;2023-09-08T10:03:26;10.02;;;8.25;;
36651;SDS011;53334;51.976;20.144;2023-09-08T10:06:00;12.90;;;7.00;;
36651;SDS011;53334;51.976;20.144;2023-09-08T10:08:35;14.48;;;7.47;;
36651;SDS011;53334;51.976;20.144;2023-09-08T10:11:10;7.78;;;7.03;;
36651;SDS011;53334;51.976;20.144;2023-09-08T10:13:46;9.27;;;7.25;;
36651;SDS011;53334;51.976;20.144;2023-09-08T10:16:22;8.70;;;7.18;;
36651;SDS011;53334;51.976;20.144;2023-09-08T10:18:59;9.20;;;7.40;;
36651;SDS011;53334;51.976;20.144;2023-09-08T10:21:36;13.63;;;7.28;;
36651;SDS011;53334;51.976;20.144;2023-09-08T10:24:14;8.25;;;6.97;;
36651;SDS011;53334;51.976;20.144;2023-09-08T10:26:51;9.32;;;6.95;;
36651;SDS011;53334;51.976;20.144;2023-09-08T10:29:28;8.65;;;7.00;;
36651;SDS011;53334;51.976;20.144;2023-09-08T10:32:02;8.23;;;6.70;;
36651;SDS011;53334;51.976;20.144;2023-09-08T10:34:38;11.27;;;7.80;;
36651;SDS011;53334;51.976;20.144;2023-09-08T10:37:19;18.13;;;8.00;;
36651;SDS011;53334;51.976;20.144;2023-09-08T10:39:53;16.25;;;7.90;;
36651;SDS011;53334;51.976;20.144;2023-09-08T10:42:28;7.28;;;6.55;;
36651;SDS011;53334;51.976;20.144;2023-09-08T10:45:02;12.95;;;7.07;;
36651;SDS011;53334;51.976;20.144;2023-09-08T10:47:56;10.75;;;6.90;;
36651;SDS011;53334;51.976;20.144;2023-09-08T10:50:30;13.63;;;6.90;;
36651;SDS011;53334;51.976;20.144;2023-09-08T10:53:06;7.82;;;7.03;;
36651;SDS011;53334;51.976;20.144;2023-09-08T10:55:43;8.95;;;6.68;;
36651;SDS011;53334;51.976;20.144;2023-09-08T10:58:38;8.27;;;6.47;;
36651;SDS011;53334;51.976;20.144;2023-09-08T11:01:15;15.90;;;7.32;;
36651;SDS011;53334;51.976;20.144;2023-09-08T11:03:49;10.10;;;6.78;;
36651;SDS011;53334;51.976;20.144;2023-09-08T11:06:23;7.57;;;6.68;;
36651;SDS011;53334;51.976;20.144;2023-09-08T11:09:05;8.48;;;6.03;;
36651;SDS011;53334;51.976;20.144;2023-09-08T11:11:39;8.23;;;6.85;;
36651;SDS011;53334;51.976;20.144;2023-09-08T11:14:14;12.15;;;6.53;;
36651;SDS011;53334;51.976;20.144;2023-09-08T11:16:47;9.63;;;6.32;;
36651;SDS011;53334;51.976;20.144;2023-09-08T11:19:21;10.13;;;6.38;;
36651;SDS011;53334;51.976;20.144;2023-09-08T11:21:54;8.95;;;6.38;;
36651;SDS011;53334;51.976;20.144;2023-09-08T11:24:28;8.70;;;6.40;;
36651;SDS011;53334;51.976;20.144;2023-09-08T11:27:02;9.35;;;7.18;;
36651;SDS011;53334;51.976;20.144;2023-09-08T11:29:37;7.10;;;6.40;;
36651;SDS011;53334;51.976;20.144;2023-09-08T11:32:12;6.57;;;5.93;;
36651;SDS011;53334;51.976;20.144;2023-09-08T11:34:45;9.40;;;6.30;;
36651;SDS011;53334;51.976;20.144;2023-09-08T11:37:18;7.50;;;6.80;;
36651;SDS011;53334;51.976;20.144;2023-09-08T11:39:52;10.82;;;6.43;;
36651;SDS011;53334;51.976;20.144;2023-09-08T11:45:01;7.90;;;6.83;;
36651;SDS011;53334;51.976;20.144;2023-09-08T11:47:35;10.20;;;6.72;;
36651;SDS011;53334;51.976;20.144;2023-09-08T11:50:09;9.43;;;6.78;;
36651;SDS011;53334;51.976;20.144;2023-09-08T11:52:47;9.52;;;6.30;;
36651;SDS011;53334;51.976;20.144;2023-09-08T11:55:21;12.70;;;6.45;;
36651;SDS011;53334;51.976;20.144;2023-09-08T11:57:55;6.88;;;6.07;;
36651;SDS011;53334;51.976;20.144;2023-09-08T12:00:32;6.65;;;6.03;;
36651;SDS011;53334;51.976;20.144;2023-09-08T12:03:11;7.53;;;6.63;;
36651;SDS011;53334;51.976;20.144;2023-09-08T12:05:50;9.93;;;6.93;;
36651;SDS011;53334;51.976;20.144;2023-09-08T12:08:24;6.57;;;5.88;;
36651;SDS011;53334;51.976;20.144;2023-09-08T12:10:58;7.70;;;6.53;;
36651;SDS011;53334;51.976;20.144;2023-09-08T12:13:31;6.95;;;6.28;;
36651;SDS011;53334;51.976;20.144;2023-09-08T12:16:18;13.35;;;6.45;;
36651;SDS011;53334;51.976;20.144;2023-09-08T12:18:52;12.95;;;6.18;;
36651;SDS011;53334;51.976;20.144;2023-09-08T12:21:26;11.85;;;6.57;;
36651;SDS011;53334;51.976;20.144;2023-09-08T12:24:01;11.70;;;6.25;;
36651;SDS011;53334;51.976;20.144;2023-09-08T12:26:35;7.60;;;6.22;;
36651;SDS011;53334;51.976;20.144;2023-09-08T12:29:12;14.75;;;6.45;;
36651;SDS011;53334;51.976;20.144;2023-09-08T12:31:46;12.45;;;6.53;;
36651;SDS011;53334;51.976;20.144;2023-09-08T12:34:20;7.85;;;6.40;;
36651;SDS011;53334;51.976;20.144;2023-09-08T12:36:54;7.47;;;6.53;;
36651;SDS011;53334;51.976;20.144;2023-09-08T12:39:28;10.25;;;7.13;;
36651;SDS011;53334;51.976;20.144;2023-09-08T12:42:01;14.27;;;6.53;;
36651;SDS011;53334;51.976;20.144;2023-09-08T12:44:35;7.80;;;7.00;;
36651;SDS011;53334;51.976;20.144;2023-09-08T12:47:10;10.95;;;7.07;;
36651;SDS011;53334;51.976;20.144;2023-09-08T12:49:44;12.15;;;7.05;;
36651;SDS011;53334;51.976;20.144;2023-09-08T12:52:18;7.50;;;6.25;;
36651;SDS011;53334;51.976;20.144;2023-09-08T12:54:51;8.05;;;6.45;;
36651;SDS011;53334;51.976;20.144;2023-09-08T12:57:24;9.48;;;6.68;;
36651;SDS011;53334;51.976;20.144;2023-09-08T12:59:57;11.15;;;7.85;;
36651;SDS011;53334;51.976;20.144;2023-09-08T13:02:32;9.20;;;6.03;;
36651;SDS011;53334;51.976;20.144;2023-09-08T13:05:06;17.70;;;6.68;;
36651;SDS011;53334;51.976;20.144;2023-09-08T13:07:39;7.32;;;6.63;;
36651;SDS011;53334;51.976;20.144;2023-09-08T13:10:13;12.88;;;6.97;;
36651;SDS011;53334;51.976;20.144;2023-09-08T13:12:46;17.25;;;7.25;;
36651;SDS011;53334;51.976;20.144;2023-09-08T13:15:20;14.85;;;6.72;;
36651;SDS011;53334;51.976;20.144;2023-09-08T13:17:55;12.48;;;6.68;;
36651;SDS011;53334;51.976;20.144;2023-09-08T13:20:28;15.27;;;6.80;;
36651;SDS011;53334;51.976;20.144;2023-09-08T13:23:02;12.38;;;6.28;;
36651;SDS011;53334;51.976;20.144;2023-09-08T13:25:35;11.52;;;7.00;;
36651;SDS011;53334;51.976;20.144;2023-09-08T13:28:08;10.15;;;6.60;;
36651;SDS011;53334;51.976;20.144;2023-09-08T13:30:42;8.48;;;6.13;;
36651;SDS011;53334;51.976;20.144;2023-09-08T13:33:16;17.13;;;6.97;;
36651;SDS011;53334;51.976;20.144;2023-09-08T13:35:50;11.75;;;6.72;;
36651;SDS011;53334;51.976;20.144;2023-09-08T13:38:24;9.30;;;6.57;;
36651;SDS011;53334;51.976;20.144;2023-09-08T13:40:57;19.67;;;7.32;;
36651;SDS011;53334;51.976;20.144;2023-09-08T13:43:30;13.43;;;6.80;;
36651;SDS011;53334;51.976;20.144;2023-09-08T13:46:03;7.40;;;6.68;;
36651;SDS011;53334;51.976;20.144;2023-09-08T13:48:38;12.40;;;6.85;;
36651;SDS011;53334;51.976;20.144;2023-09-08T13:51:12;11.27;;;7.47;;
36651;SDS011;53334;51.976;20.144;2023-09-08T13:53:48;15.18;;;6.50;;
36651;SDS011;53334;51.976;20.144;2023-09-08T13:56:23;10.32;;;6.90;;
36651;SDS011;53334;51.976;20.144;2023-09-08T13:58:58;10.68;;;6.68;;
36651;SDS011;53334;51.976;20.144;2023-09-08T14:01:34;16.17;;;6.78;;
36651;SDS011;53334;51.976;20.144;2023-09-08T14:04:13;12.68;;;7.63;;
36651;SDS011;53334;51.976;20.144;2023-09-08T14:06:49;10.68;;;7.00;;
36651;SDS011;53334;51.976;20.144;2023-09-08T14:09:29;11.57;;;6.65;;
36651;SDS011;53334;51.976;20.144;2023-09-08T14:12:23;9.98;;;6.28;;
36651;SDS011;53334;51.976;20.144;2023-09-08T14:15:06;6.30;;;5.70;;
36651;SDS011;53334;51.976;20.144;2023-09-08T14:17:40;6.35;;;5.75;;
36651;SDS011;53334;51.976;20.144;2023-09-08T14:20:15;6.90;;;5.80;;
36651;SDS011;53334;51.976;20.144;2023-09-08T14:22:48;8.80;;;7.00;;
36651;SDS011;53334;51.976;20.144;2023-09-08T14:25:21;7.65;;;6.88;;
36651;SDS011;53334;51.976;20.144;2023-09-08T14:27:55;6.47;;;5.78;;
36651;SDS011;53334;51.976;20.144;2023-09-08T14:30:32;7.00;;;6.30;;
36651;SDS011;53334;51.976;20.144;2023-09-08T14:33:06;10.13;;;5.95;;
36651;SDS011;53334;51.976;20.144;2023-09-08T14:38:15;7.20;;;5.80;;
36651;SDS011;53334;51.976;20.144;2023-09-08T14:40:55;7.03;;;5.43;;
36651;SDS011;53334;51.976;20.144;2023-09-08T14:43:29;9.80;;;6.10;;
36651;SDS011;53334;51.976;20.144;2023-09-08T14:48:36;9.50;;;6.38;;
36651;SDS011;53334;51.976;20.144;2023-09-08T14:51:11;7.65;;;6.53;;
36651;SDS011;53334;51.976;20.144;2023-09-08T14:53:45;6.18;;;5.63;;
36651;SDS011;53334;51.976;20.144;2023-09-08T14:56:19;7.38;;;6.55;;
36651;SDS011;53334;51.976;20.144;2023-09-08T14:58:52;6.88;;;6.28;;
36651;SDS011;53334;51.976;20.144;2023-09-08T15:01:26;8.13;;;6.32;;
36651;SDS011;53334;51.976;20.144;2023-09-08T15:03:59;6.20;;;5.63;;
36651;SDS011;53334;51.976;20.144;2023-09-08T15:06:34;8.05;;;6.32;;
36651;SDS011;53334;51.976;20.144;2023-09-08T15:09:07;7.30;;;5.47;;
36651;SDS011;53334;51.976;20.144;2023-09-08T15:11:40;7.70;;;6.55;;
36651;SDS011;53334;51.976;20.144;2023-09-08T15:14:14;7.35;;;5.95;;
36651;SDS011;53334;51.976;20.144;2023-09-08T15:16:47;7.50;;;5.97;;
36651;SDS011;53334;51.976;20.144;2023-09-08T15:19:20;6.60;;;5.97;;
36651;SDS011;53334;51.976;20.144;2023-09-08T15:21:55;9.00;;;6.63;;
36651;SDS011;53334;51.976;20.144;2023-09-08T15:24:28;6.22;;;5.57;;
36651;SDS011;53334;51.976;20.144;2023-09-08T15:27:02;9.70;;;6.07;;
36651;SDS011;53334;51.976;20.144;2023-09-08T15:32:08;6.80;;;5.97;;
36651;SDS011;53334;51.976;20.144;2023-09-08T15:34:42;6.82;;;6.13;;
36651;SDS011;53334;51.976;20.144;2023-09-08T15:37:19;8.75;;;5.75;;
36651;SDS011;53334;51.976;20.144;2023-09-08T15:39:53;6.45;;;5.85;;
36651;SDS011;53334;51.976;20.144;2023-09-08T15:42:26;7.20;;;5.90;;